Terminal Aerodrome Forecast
Issued by NWS Jackson, MS

Home | Current Version | Previous Version | Text Only | Print | Product List | Glossary On
Versions: 1 2 3 4 5 6 7 8 9 10 11 12 13 14 15 16 17 18 19 20 21 22 23 24
000
FTUS44 KJAN 160547
TAFGLH
TAF
KGLH 160547Z 1606/1706 17011KT P6SM BKN120
     FM161200 20010KT P6SM SCT015 BKN025
     FM161500 21011KT P6SM BKN040
     FM161800 21011KT P6SM -TSRA BKN035 BKN050CB
     FM170100 20007KT P6SM OVC050=

USA.gov is the U.S. government's official web portal to all federal, state and local government web resources and services.